Woodhaven, Michigan
Current Conditions -  °F | °C
As of 5:34 AM on Thursday 29 Jan 2015 (Local Time) from KONZ Reporting Station
Overcast Overcast  
Wind Chill: 20°   Ceiling: 6000
Heat Index: 28°   Visibility: 10mi
Dew Point: 19°   Wind: 9mph
Humidity: 69%   Direction: 140°SE
Pressure: 29.89"   Gusts: NA
Location:  42.14°N, 83.24°W
Report Text: KONZ 291034Z AUTO 14008KT 10SM OVC060 M02/M07 A2989 RMK AO2
Loading
Personal Weather Stations






























Interactive Weather Map New forecast layout! Learn more

10-Day Weather Forecast

Advertisements
Track Severe Weather on mobile